JIGWS01 EGVN-EGVN

Flight info

Callsign JIGWS01
Flight time N/A
Altitude 5000
Route EGHQ STAYINFO
Aircraft A400/H-SDGRY/S

Departure

Time 2026-04-28 18:34
Airport RAF Brize Norton (EGVN)

Arrival

Time N/A
Airport RAF Brize Norton (EGVN)
Time Latitude Longitude Altitude Speed Heading
2026-04-28 18:23 51.75606 -1.57335 273 ft 0 kts 289°
2026-04-28 18:29 51.75607 -1.57337 273 ft 1 kts 289°
2026-04-28 18:29 51.75614 -1.57373 278 ft 8 kts 291°
2026-04-28 18:29 51.75656 -1.57402 273 ft 8 kts
2026-04-28 18:29 51.75711 -1.57376 273 ft 9 kts 19°
2026-04-28 18:30 51.75777 -1.57342 273 ft 10 kts 18°
2026-04-28 18:30 51.75799 -1.57330 273 ft 11 kts 18°
2026-04-28 18:30 51.75911 -1.57295 273 ft 7 kts 327°
2026-04-28 18:30 51.75934 -1.57405 273 ft 14 kts 275°
2026-04-28 18:31 51.75905 -1.57514 273 ft 11 kts 211°
2026-04-28 18:31 51.75832 -1.57553 273 ft 12 kts 198°
2026-04-28 18:31 51.75749 -1.57596 273 ft 14 kts 198°
2026-04-28 18:31 51.75652 -1.57646 273 ft 15 kts 198°
2026-04-28 18:32 51.75549 -1.57707 273 ft 16 kts 208°
2026-04-28 18:32 51.75448 -1.57795 275 ft 17 kts 208°
2026-04-28 18:32 51.75338 -1.57886 273 ft 18 kts 205°
2026-04-28 18:32 51.75227 -1.57982 274 ft 16 kts 210°
2026-04-28 18:33 51.75128 -1.58070 275 ft 16 kts 210°
2026-04-28 18:33 51.75039 -1.58093 273 ft 9 kts 120°
2026-04-28 18:33 51.75049 -1.58024 274 ft 9 kts 71°
2026-04-28 18:33 51.75081 -1.57855 275 ft 34 kts 74°
2026-04-28 18:34 51.75222 -1.57078 272 ft 111 kts 72°
2026-04-28 18:34 51.75499 -1.55608 470 ft 151 kts 72°
2026-04-28 18:34 51.75712 -1.53922 1106 ft 161 kts 93°
2026-04-28 18:34 51.75186 -1.52265 1754 ft 182 kts 146°
2026-04-28 18:35 51.73871 -1.51784 2022 ft 217 kts 182°
2026-04-28 18:35 51.72289 -1.51978 1919 ft 238 kts 189°
2026-04-28 18:35 51.70519 -1.52313 1805 ft 269 kts 190°
2026-04-28 18:35 51.68658 -1.52704 1659 ft 270 kts 191°
2026-04-28 18:36 51.66838 -1.53191 1691 ft 262 kts 194°
2026-04-28 18:36 51.64984 -1.53823 1685 ft 281 kts 197°
2026-04-28 18:36 51.63098 -1.54611 1575 ft 276 kts 199°
2026-04-28 18:36 51.61289 -1.55504 1385 ft 270 kts 202°
2026-04-28 18:37 51.59525 -1.56514 1160 ft 266 kts 204°
2026-04-28 18:37 51.57814 -1.57638 1213 ft 266 kts 207°
2026-04-28 18:37 51.56159 -1.58963 1382 ft 270 kts 214°
2026-04-28 18:37 51.54543 -1.60695 1597 ft 288 kts 222°
2026-04-28 18:38 51.52967 -1.62809 1725 ft 300 kts 225°
2026-04-28 18:38 51.51459 -1.64977 1727 ft 284 kts 227°
2026-04-28 18:38 51.50047 -1.67098 1668 ft 273 kts 228°
2026-04-28 18:38 51.48705 -1.69190 1772 ft 266 kts 230°
2026-04-28 18:39 51.47432 -1.71342 1816 ft 267 kts 233°
2026-04-28 18:39 51.46212 -1.73607 1810 ft 270 kts 236°
2026-04-28 18:39 51.45045 -1.75984 1782 ft 273 kts 238°
2026-04-28 18:39 51.43932 -1.78470 1714 ft 277 kts 241°
2026-04-28 18:40 51.42880 -1.81071 1609 ft 280 kts 244°
2026-04-28 18:40 51.41926 -1.83746 1771 ft 273 kts 247°
2026-04-28 18:40 51.41062 -1.86432 1834 ft 271 kts 245°
2026-04-28 18:40 51.40490 -1.88215 1857 ft 271 kts 245°
2026-04-28 18:41 51.39362 -1.91717 1847 ft 264 kts 245°
2026-04-28 18:41 51.38803 -1.93449 1849 ft 264 kts 245°
2026-04-28 18:41 51.37955 -1.96071 1837 ft 265 kts 245°
2026-04-28 18:41 51.37103 -1.98704 1846 ft 267 kts 245°
2026-04-28 18:42 51.36250 -2.01334 1849 ft 266 kts 245°
2026-04-28 18:42 51.35394 -2.03966 1853 ft 266 kts 245°
2026-04-28 18:42 51.34540 -2.06587 1853 ft 266 kts 245°
2026-04-28 18:42 51.33683 -2.09211 1848 ft 266 kts 245°
2026-04-28 18:43 51.32825 -2.11828 1847 ft 266 kts 245°
2026-04-28 18:43 51.31965 -2.14449 1846 ft 266 kts 245°
2026-04-28 18:43 51.31104 -2.17062 1854 ft 265 kts 245°
2026-04-28 18:43 51.30246 -2.19658 1848 ft 265 kts 245°
2026-04-28 18:44 51.29384 -2.22258 1859 ft 264 kts 245°
2026-04-28 18:44 51.27670 -2.27412 1850 ft 264 kts 244°
2026-04-28 18:44 51.26804 -2.30006 1853 ft 265 kts 244°
2026-04-28 18:45 51.25936 -2.32598 1846 ft 265 kts 244°
2026-04-28 18:45 51.25065 -2.35190 1841 ft 265 kts 244°
2026-04-28 18:45 51.24193 -2.37786 1847 ft 266 kts 244°
2026-04-28 18:45 51.23318 -2.40381 1846 ft 265 kts 244°
2026-04-28 18:46 51.22479 -2.42984 1840 ft 264 kts 248°
2026-04-28 18:46 51.21737 -2.45667 1849 ft 263 kts 250°
2026-04-28 18:46 51.21039 -2.48359 1853 ft 263 kts 250°
2026-04-28 18:46 51.20354 -2.51053 1826 ft 262 kts 250°
2026-04-28 18:47 51.19662 -2.53752 1830 ft 263 kts 250°
2026-04-28 18:47 51.18968 -2.56479 1833 ft 262 kts 250°
2026-04-28 18:47 51.18282 -2.59164 1828 ft 261 kts 250°
2026-04-28 18:47 51.17590 -2.61844 1848 ft 262 kts 250°
2026-04-28 18:48 51.16906 -2.64525 1831 ft 262 kts 250°
2026-04-28 18:48 51.16213 -2.67206 1827 ft 262 kts 250°
2026-04-28 18:48 51.15528 -2.69854 1830 ft 262 kts 250°
2026-04-28 18:48 51.14833 -2.72543 1829 ft 262 kts 250°
2026-04-28 18:49 51.14139 -2.75232 1824 ft 262 kts 250°
2026-04-28 18:49 51.13669 -2.77047 1831 ft 263 kts 250°
2026-04-28 18:49 51.12754 -2.80616 1826 ft 263 kts 250°
2026-04-28 18:49 51.12067 -2.83312 1831 ft 262 kts 250°
2026-04-28 18:50 51.11377 -2.85993 1828 ft 262 kts 250°
2026-04-28 18:50 51.10683 -2.88671 1832 ft 261 kts 250°
2026-04-28 18:50 51.09990 -2.91341 1838 ft 261 kts 250°
2026-04-28 18:50 51.09300 -2.94009 1833 ft 260 kts 250°
2026-04-28 18:51 51.08611 -2.96674 1844 ft 261 kts 250°
2026-04-28 18:51 51.07924 -2.99343 1845 ft 261 kts 250°
2026-04-28 18:51 51.07232 -3.02009 1837 ft 261 kts 250°
2026-04-28 18:51 51.06535 -3.04675 1848 ft 261 kts 250°
2026-04-28 18:52 51.05841 -3.07343 1846 ft 261 kts 250°
2026-04-28 18:52 51.05146 -3.10012 1850 ft 261 kts 250°
2026-04-28 18:52 51.04451 -3.12670 1848 ft 261 kts 250°
2026-04-28 18:52 51.03753 -3.15328 1847 ft 260 kts 250°
2026-04-28 18:53 51.03057 -3.17963 1852 ft 260 kts 250°
2026-04-28 18:53 51.02359 -3.20608 1847 ft 259 kts 250°
2026-04-28 18:53 51.01662 -3.23256 1852 ft 259 kts 250°
2026-04-28 18:53 51.00965 -3.25894 1854 ft 260 kts 250°
2026-04-28 18:54 51.00268 -3.28535 1849 ft 259 kts 250°
2026-04-28 18:54 50.99569 -3.31169 1851 ft 260 kts 250°
2026-04-28 18:54 50.98863 -3.33813 1841 ft 260 kts 250°
2026-04-28 18:54 50.98155 -3.36458 1844 ft 261 kts 250°
2026-04-28 18:55 50.97444 -3.39115 1849 ft 262 kts 250°
2026-04-28 18:55 50.96970 -3.40880 1848 ft 262 kts 250°
2026-04-28 18:55 50.96013 -3.44441 1855 ft 262 kts 250°
2026-04-28 18:55 50.95297 -3.47091 1847 ft 261 kts 250°
2026-04-28 18:56 50.94581 -3.49732 1854 ft 260 kts 249°
2026-04-28 18:56 50.93881 -3.52331 1845 ft 259 kts 250°
2026-04-28 18:56 50.93162 -3.54968 1849 ft 261 kts 249°
2026-04-28 18:56 50.92440 -3.57601 1829 ft 261 kts 250°
2026-04-28 18:57 50.91708 -3.60256 1852 ft 264 kts 250°
2026-04-28 18:57 50.90972 -3.62905 1850 ft 262 kts 250°
2026-04-28 18:57 50.90232 -3.65554 1852 ft 263 kts 249°
2026-04-28 18:57 50.89492 -3.68201 1850 ft 263 kts 250°
2026-04-28 18:58 50.88744 -3.70856 1858 ft 265 kts 250°
2026-04-28 18:58 50.87994 -3.73509 1851 ft 263 kts 249°
2026-04-28 18:58 50.87255 -3.76156 1864 ft 263 kts 250°
2026-04-28 18:58 50.86507 -3.78802 1862 ft 263 kts 250°
2026-04-28 18:59 50.85764 -3.81446 1849 ft 263 kts 249°
2026-04-28 18:59 50.85021 -3.84097 1866 ft 263 kts 250°
2026-04-28 18:59 50.84278 -3.86743 1865 ft 264 kts 250°
2026-04-28 18:59 50.83533 -3.89403 1866 ft 263 kts 250°
2026-04-28 19:00 50.82795 -3.92042 1868 ft 262 kts 250°
2026-04-28 19:00 50.82063 -3.94669 1867 ft 261 kts 249°
2026-04-28 19:00 50.81331 -3.97310 1860 ft 261 kts 249°
2026-04-28 19:00 50.80600 -3.99941 1860 ft 262 kts 250°
2026-04-28 19:01 50.79862 -4.02582 1867 ft 262 kts 249°
2026-04-28 19:01 50.79129 -4.05214 1864 ft 263 kts 250°
2026-04-28 19:01 50.78384 -4.07864 1871 ft 263 kts 250°
2026-04-28 19:01 50.77639 -4.10505 1874 ft 263 kts 249°
2026-04-28 19:02 50.76898 -4.13149 1869 ft 263 kts 249°
2026-04-28 19:02 50.76165 -4.15813 1895 ft 271 kts 249°
2026-04-28 19:02 50.75445 -4.18644 1899 ft 281 kts 249°
2026-04-28 19:02 50.74724 -4.21530 1898 ft 283 kts 249°
2026-04-28 19:03 50.74012 -4.24374 1906 ft 282 kts 250°
2026-04-28 19:03 50.73281 -4.27286 1911 ft 282 kts 249°
2026-04-28 19:03 50.72560 -4.30172 1913 ft 282 kts 250°
2026-04-28 19:03 50.71849 -4.33014 1914 ft 282 kts 249°
2026-04-28 19:04 50.71131 -4.35887 1913 ft 282 kts 249°
2026-04-28 19:04 50.70425 -4.38794 1919 ft 284 kts 249°
2026-04-28 19:04 50.69724 -4.41693 1911 ft 281 kts 250°
2026-04-28 19:04 50.69000 -4.44566 1915 ft 282 kts 246°
2026-04-28 19:05 50.68042 -4.47261 1910 ft 282 kts 236°
2026-04-28 19:05 50.66949 -4.49841 1921 ft 283 kts 234°
2026-04-28 19:05 50.65833 -4.52393 1921 ft 283 kts 234°
2026-04-28 19:05 50.64713 -4.54940 1915 ft 282 kts 234°
2026-04-28 19:06 50.63590 -4.57476 1915 ft 283 kts 234°
2026-04-28 19:06 50.62844 -4.59154 1921 ft 282 kts 234°
2026-04-28 19:06 50.61339 -4.62532 1913 ft 281 kts 234°
2026-04-28 19:06 50.60203 -4.65032 1920 ft 280 kts 234°
2026-04-28 19:07 50.59055 -4.67465 1917 ft 281 kts 228°
2026-04-28 19:07 50.57681 -4.69630 1903 ft 279 kts 220°
2026-04-28 19:07 50.56228 -4.71663 1919 ft 279 kts 219°
2026-04-28 19:07 50.54768 -4.73683 1918 ft 279 kts 219°
2026-04-28 19:08 50.53235 -4.75534 1927 ft 277 kts 207°
2026-04-28 19:08 50.51508 -4.76861 1926 ft 275 kts 200°
2026-04-28 19:08 50.49749 -4.78034 1932 ft 274 kts 199°
2026-04-28 19:08 50.47991 -4.79199 1926 ft 275 kts 199°
2026-04-28 19:09 50.46225 -4.80365 1933 ft 275 kts 199°
2026-04-28 19:09 50.44463 -4.81513 1937 ft 274 kts 199°
2026-04-28 19:09 50.42697 -4.82670 1929 ft 276 kts 200°
2026-04-28 19:09 50.40940 -4.83872 1945 ft 276 kts 208°
2026-04-28 19:10 50.39633 -4.86044 2112 ft 281 kts 246°
2026-04-28 19:10 50.39437 -4.88972 2026 ft 268 kts 292°
2026-04-28 19:10 50.40327 -4.91481 1740 ft 267 kts 310°
2026-04-28 19:10 50.41467 -4.93735 1405 ft 260 kts 315°
2026-04-28 19:11 50.42630 -4.95883 1195 ft 259 kts 311°
2026-04-28 19:11 50.43604 -4.98244 970 ft 259 kts 304°
2026-04-28 19:11 50.44556 -5.00704 929 ft 261 kts 292°
2026-04-28 19:11 50.44397 -5.03309 1313 ft 245 kts 233°
2026-04-28 19:12 50.42942 -5.04464 1281 ft 242 kts 168°
2026-04-28 19:12 50.41560 -5.03239 1263 ft 226 kts 123°
2026-04-28 19:12 50.40731 -5.01200 1220 ft 224 kts 116°
2026-04-28 19:12 50.40053 -4.99087 1216 ft 202 kts 92°
2026-04-28 19:13 50.40434 -4.97271 1199 ft 173 kts 47°
2026-04-28 19:13 50.41472 -4.96202 880 ft 186 kts 23°
2026-04-28 19:13 50.42674 -4.96056 891 ft 176 kts 348°
2026-04-28 19:13 50.43368 -4.97326 593 ft 159 kts 287°
2026-04-28 19:14 50.43783 -4.98972 477 ft 165 kts 307°
2026-04-28 19:14 50.44426 -5.00519 709 ft 175 kts 313°
2026-04-28 19:14 50.45124 -5.02220 1030 ft 194 kts 299°
2026-04-28 19:14 50.45057 -5.04349 1184 ft 211 kts 242°
2026-04-28 19:15 50.43887 -5.05656 1234 ft 215 kts 187°
2026-04-28 19:15 50.42505 -5.05106 1236 ft 206 kts 141°
2026-04-28 19:15 50.41345 -5.03724 1281 ft 212 kts 136°
2026-04-28 19:15 50.40657 -5.02642 1372 ft 212 kts 127°
2026-04-28 19:16 50.39375 -5.00304 1487 ft 212 kts 126°
2026-04-28 19:16 50.38558 -4.98424 1503 ft 198 kts 102°
2026-04-28 19:16 50.38752 -4.96575 1528 ft 172 kts 49°
2026-04-28 19:16 50.39700 -4.95510 1333 ft 167 kts 27°
2026-04-28 19:17 50.40771 -4.94864 1169 ft 159 kts 13°
2026-04-28 19:17 50.41850 -4.95029 1087 ft 161 kts 344°
2026-04-28 19:17 50.42736 -4.96124 744 ft 155 kts 313°
2026-04-28 19:17 50.43307 -4.97487 506 ft 157 kts 306°
2026-04-28 19:18 50.43847 -4.98930 354 ft 140 kts 303°
2026-04-28 19:18 50.44253 -4.99998 351 ft 92 kts 300°
2026-04-28 19:18 50.44521 -5.00716 348 ft 63 kts 299°
2026-04-28 19:18 50.44665 -5.01103 346 ft 19 kts 299°
2026-04-28 19:19 50.44753 -5.01131 345 ft 11 kts 24°
2026-04-28 19:19 50.44800 -5.01055 349 ft 7 kts 59°
2026-04-28 19:19 50.44809 -5.00984 341 ft 9 kts 89°
2026-04-28 19:19 50.44783 -5.00865 340 ft 15 kts 120°
2026-04-28 19:20 50.44724 -5.00714 333 ft 16 kts 122°
2026-04-28 19:20 50.44706 -5.00666 335 ft 11 kts 121°
2026-04-28 19:20 50.44664 -5.00554 337 ft 9 kts 120°
2026-04-28 19:20 50.44661 -5.00546 338 ft 0 kts 120°
2026-04-28 19:21 50.44644 -5.00502 338 ft 8 kts 120°
2026-04-28 19:22 50.44642 -5.00497 339 ft 0 kts 120°
2026-04-28 19:22 50.44575 -5.00308 350 ft 19 kts 121°
2026-04-28 19:22 50.44518 -5.00166 351 ft 13 kts 120°
2026-04-28 19:23 50.44477 -5.00061 350 ft 13 kts 122°
2026-04-28 19:23 50.44423 -4.99914 357 ft 18 kts 119°
2026-04-28 19:23 50.44351 -4.99721 354 ft 23 kts 120°
2026-04-28 19:23 50.44265 -4.99494 358 ft 24 kts 121°
2026-04-28 19:24 50.44188 -4.99288 354 ft 19 kts 120°
2026-04-28 19:24 50.44125 -4.99121 357 ft 17 kts 120°
2026-04-28 19:24 50.44071 -4.98981 361 ft 13 kts 121°
2026-04-28 19:24 50.44027 -4.98860 360 ft 13 kts 120°
2026-04-28 19:25 50.43983 -4.98743 361 ft 12 kts 121°
2026-04-28 19:25 50.43943 -4.98638 363 ft 11 kts 120°
2026-04-28 19:25 50.43901 -4.98525 360 ft 13 kts 120°
2026-04-28 19:25 50.43856 -4.98405 360 ft 12 kts 121°
2026-04-28 19:26 50.43827 -4.98329 362 ft 12 kts 120°
2026-04-28 19:26 50.43785 -4.98217 360 ft 12 kts 121°
2026-04-28 19:26 50.43745 -4.98110 359 ft 10 kts 120°
2026-04-28 19:26 50.43712 -4.98025 364 ft 9 kts 122°
2026-04-28 19:27 50.43678 -4.97944 364 ft 10 kts 128°
2026-04-28 19:27 50.43622 -4.97872 356 ft 11 kts 148°
2026-04-28 19:27 50.43558 -4.97848 351 ft 0 kts 177°
2026-04-28 19:33 50.43542 -4.97848 357 ft 8 kts 183°
2026-04-28 19:33 50.43478 -4.97876 354 ft 9 kts 209°
2026-04-28 19:33 50.43475 -4.97922 356 ft 4 kts 288°
2026-04-28 19:34 50.43487 -4.97956 359 ft 0 kts 300°
2026-04-28 19:35 50.43575 -4.98192 355 ft 67 kts 300°
2026-04-28 19:35 50.43947 -4.99179 355 ft 143 kts 299°
2026-04-28 19:35 50.44513 -5.00729 644 ft 177 kts 303°
2026-04-28 19:35 50.45155 -5.02493 1074 ft 194 kts 306°
2026-04-28 19:36 50.45911 -5.04360 1521 ft 209 kts 319°
2026-04-28 19:36 50.47197 -5.05309 1911 ft 219 kts
2026-04-28 19:36 50.48782 -5.04758 1783 ft 242 kts 19°
2026-04-28 19:36 50.50382 -5.03965 1776 ft 242 kts 23°
2026-04-28 19:37 50.51833 -5.02645 1714 ft 243 kts 44°
2026-04-28 19:37 50.52646 -5.01371 1666 ft 245 kts 46°
2026-04-28 19:37 50.54222 -4.98764 1475 ft 253 kts 49°
2026-04-28 19:37 50.55253 -4.96553 1615 ft 246 kts 63°
2026-04-28 19:38 50.55883 -4.94089 1889 ft 239 kts 68°
2026-04-28 19:38 50.56591 -4.91758 2060 ft 235 kts 63°
2026-04-28 19:38 50.57283 -4.89437 2202 ft 233 kts 65°
2026-04-28 19:38 50.57932 -4.87096 2336 ft 233 kts 64°
2026-04-28 19:39 50.58584 -4.84799 2687 ft 227 kts 65°
2026-04-28 19:39 50.59269 -4.82542 2740 ft 233 kts 58°
2026-04-28 19:39 50.60173 -4.80389 2733 ft 238 kts 56°
2026-04-28 19:39 50.61028 -4.78142 2744 ft 241 kts 57°
2026-04-28 19:40 50.61817 -4.75804 2764 ft 243 kts 70°
2026-04-28 19:40 50.62140 -4.73205 2833 ft 241 kts 78°
2026-04-28 19:40 50.62164 -4.70558 2940 ft 246 kts 97°
2026-04-28 19:40 50.61573 -4.68002 3000 ft 253 kts 115°
2026-04-28 19:41 50.60691 -4.65584 3051 ft 255 kts 115°
2026-04-28 19:41 50.59825 -4.63124 3040 ft 260 kts 114°
2026-04-28 19:41 50.58974 -4.60589 2940 ft 265 kts 114°
2026-04-28 19:41 50.58106 -4.58012 2916 ft 266 kts 112°
2026-04-28 19:42 50.57550 -4.55233 2916 ft 271 kts 101°
2026-04-28 19:42 50.56894 -4.52405 2931 ft 278 kts 111°
2026-04-28 19:42 50.56010 -4.49687 2927 ft 280 kts 114°
2026-04-28 19:42 50.55399 -4.47896 2930 ft 281 kts 114°
2026-04-28 19:43 50.54150 -4.44270 2933 ft 282 kts 114°
2026-04-28 19:43 50.53283 -4.41512 2930 ft 279 kts 107°
2026-04-28 19:43 50.53034 -4.38565 2915 ft 271 kts 81°
2026-04-28 19:43 50.53650 -4.35810 2922 ft 268 kts 60°
2026-04-28 19:44 50.54662 -4.33352 2925 ft 267 kts 55°
2026-04-28 19:44 50.55726 -4.30955 2925 ft 267 kts 55°
2026-04-28 19:44 50.56800 -4.28577 2920 ft 267 kts 54°
2026-04-28 19:44 50.57880 -4.26199 2929 ft 266 kts 54°
2026-04-28 19:45 50.58953 -4.23833 2927 ft 266 kts 54°
2026-04-28 19:45 50.60027 -4.21455 2931 ft 267 kts 54°
2026-04-28 19:45 50.61097 -4.19088 2929 ft 265 kts 54°
2026-04-28 19:45 50.62164 -4.16732 2930 ft 264 kts 54°
2026-04-28 19:46 50.63225 -4.14406 2931 ft 265 kts 54°
2026-04-28 19:46 50.64294 -4.12034 2923 ft 265 kts 54°
2026-04-28 19:46 50.65360 -4.09679 2926 ft 264 kts 54°
2026-04-28 19:46 50.66429 -4.07321 2915 ft 264 kts 54°
2026-04-28 19:47 50.67495 -4.04964 2922 ft 264 kts 55°
2026-04-28 19:47 50.68565 -4.02617 2916 ft 263 kts 54°
2026-04-28 19:47 50.69631 -4.00264 2940 ft 265 kts 54°
2026-04-28 19:47 50.70696 -3.97892 2933 ft 265 kts 54°
2026-04-28 19:48 50.71762 -3.95512 2940 ft 267 kts 54°
2026-04-28 19:48 50.72834 -3.93123 2936 ft 267 kts 55°
2026-04-28 19:48 50.73913 -3.90750 2928 ft 266 kts 54°
2026-04-28 19:48 50.74998 -3.88378 2924 ft 266 kts 54°
2026-04-28 19:49 50.76073 -3.85998 2924 ft 266 kts 54°
2026-04-28 19:49 50.77150 -3.83627 2920 ft 265 kts 54°
2026-04-28 19:49 50.78228 -3.81254 2923 ft 266 kts 54°
2026-04-28 19:49 50.79303 -3.78874 2921 ft 266 kts 55°
2026-04-28 19:50 50.81462 -3.74139 2914 ft 265 kts 54°
2026-04-28 19:50 50.82517 -3.71798 2916 ft 265 kts 54°
2026-04-28 19:50 50.83590 -3.69427 2920 ft 265 kts 55°
2026-04-28 19:51 50.84665 -3.67063 2921 ft 265 kts 54°
2026-04-28 19:51 50.85737 -3.64701 2917 ft 264 kts 54°
2026-04-28 19:51 50.86807 -3.62341 2920 ft 264 kts 55°
2026-04-28 19:51 50.87880 -3.59989 2922 ft 264 kts 54°
2026-04-28 19:52 50.88948 -3.57631 2927 ft 263 kts 55°
2026-04-28 19:52 50.90022 -3.55277 2917 ft 264 kts 54°
2026-04-28 19:52 50.91100 -3.52923 2921 ft 263 kts 54°
2026-04-28 19:52 50.92174 -3.50578 2924 ft 263 kts 55°
2026-04-28 19:53 50.93251 -3.48232 2912 ft 264 kts 55°
2026-04-28 19:53 50.94329 -3.45867 2918 ft 264 kts 54°
2026-04-28 19:53 50.95036 -3.44305 2929 ft 263 kts 55°